Time;durP1;ratioP1;P1;durP2;ratioP2;P2;SDS_P1;SDS_P2;PMS_P1;PMS_P2;Temp;Humidity;BMP_temperature;BMP_pressure;BME280_temperature;BME280_humidity;BME280_pressure;Samples;Min_cycle;Max_cycle;Signal;HPM_P1;HPM_P2
2022/06/10 00:02:03;;;;;;;5.90;2.78;;;12.10;99.90;;;;;;5064870;28;20067;-60
2022/06/10 00:04:29;;;;;;;6.43;3.03;;;12.10;99.90;;;;;;5060594;28;20808;-60
2022/06/10 00:06:54;;;;;;;8.15;3.08;;;12.20;99.90;;;;;;5060676;28;20043;-60
2022/06/10 00:09:20;;;;;;;8.20;2.80;;;12.20;99.90;;;;;;5064385;28;20024;-60
2022/06/10 00:11:46;;;;;;;8.75;3.20;;;12.20;99.90;;;;;;5062617;28;20033;-60
2022/06/10 00:14:11;;;;;;;4.72;2.83;;;12.10;99.90;;;;;;5064658;28;20064;-60
2022/06/10 00:16:37;;;;;;;5.32;2.85;;;12.10;99.90;;;;;;5061625;28;20035;-60
2022/06/10 00:19:03;;;;;;;4.88;2.67;;;12.00;99.90;;;;;;5060849;28;20399;-60
2022/06/10 00:21:29;;;;;;;8.52;3.33;;;12.00;99.90;;;;;;5065932;28;20037;-60
2022/06/10 00:23:54;;;;;;;10.73;3.08;;;12.00;99.90;;;;;;5057716;28;20029;-59
2022/06/10 00:26:20;;;;;;;7.80;3.35;;;12.00;99.90;;;;;;5070082;28;20033;-60
2022/06/10 00:28:47;;;;;;;5.57;3.30;;;12.10;99.90;;;;;;5067524;28;20492;-60
2022/06/10 00:31:14;;;;;;;11.80;3.67;;;12.10;99.90;;;;;;5067083;28;20132;-60
2022/06/10 00:33:40;;;;;;;6.75;3.63;;;12.20;99.90;;;;;;5068990;28;20043;-60
2022/06/10 00:36:08;;;;;;;10.60;3.05;;;12.20;99.90;;;;;;5069013;28;20103;-60
2022/06/10 00:38:34;;;;;;;5.65;2.85;;;12.20;99.90;;;;;;5060469;28;20037;-60
2022/06/10 00:41:00;;;;;;;8.35;2.40;;;12.10;99.90;;;;;;5068897;28;20394;-60
2022/06/10 00:43:31;;;;;;;7.38;2.60;;;11.90;99.90;;;;;;5063400;28;20037;-60
2022/06/10 00:46:26;;;;;;;6.07;2.60;;;11.80;99.90;;;;;;5068445;28;20047;-60
2022/06/10 00:49:07;;;;;;;10.07;2.70;;;11.70;99.90;;;;;;5067809;28;20043;-60
2022/06/10 00:51:33;;;;;;;;;;;11.50;99.90;;;;;;5069954;28;20041;-60
2022/06/10 00:54:22;;;;;;;6.57;3.25;;;11.50;99.90;;;;;;5067451;28;19932;-60
2022/06/10 00:56:59;;;;;;;9.20;3.92;;;11.60;99.90;;;;;;5063992;28;20053;-60
2022/06/10 00:59:33;;;;;;;7.68;3.67;;;11.70;99.90;;;;;;5058064;28;20052;-60
2022/06/10 01:02:08;;;;;;;6.32;3.17;;;11.80;99.90;;;;;;5066752;28;20453;-60
2022/06/10 01:04:34;;;;;;;6.65;3.03;;;11.70;99.90;;;;;;5068399;28;20036;-60
2022/06/10 01:06:59;;;;;;;7.93;3.80;;;11.70;99.90;;;;;;5066742;28;20480;-60
2022/06/10 01:09:29;;;;;;;7.00;3.50;;;11.70;99.90;;;;;;5064096;28;20029;-60
2022/06/10 01:12:33;;;;;;;8.63;3.90;;;11.60;99.90;;;;;;5066561;28;20044;-60
2022/06/10 01:15:14;;;;;;;7.90;3.22;;;11.60;99.90;;;;;;4986610;28;20096;-60
2022/06/10 01:17:54;;;;;;;5.65;3.00;;;11.50;99.90;;;;;;4982068;28;20058;-60
2022/06/10 01:20:28;;;;;;;;;;;11.40;99.90;;;;;;5037684;28;20498;-60
2022/06/10 01:23:17;;;;;;;9.65;3.55;;;11.40;99.90;;;;;;5066536;28;19916;-60
2022/06/10 01:26:10;;;;;;;8.60;3.40;;;11.40;99.90;;;;;;5065096;28;20082;-59
2022/06/10 01:29:12;;;;;;;6.93;3.20;;;11.40;99.90;;;;;;5068326;28;20107;-60
2022/06/10 01:31:40;;;;;;;7.68;3.28;;;11.40;99.90;;;;;;5050049;28;20095;-60
2022/06/10 01:34:11;;;;;;;6.07;3.53;;;11.30;99.90;;;;;;5062688;28;20336;-60
2022/06/10 01:36:49;;;;;;;7.20;3.30;;;11.30;99.90;;;;;;5066395;28;20028;-60
2022/06/10 01:39:43;;;;;;;9.43;3.17;;;11.30;99.90;;;;;;5064587;28;20028;-60
2022/06/10 01:42:27;;;;;;;8.15;3.20;;;11.30;99.90;;;;;;5065980;28;20123;-60
2022/06/10 01:45:11;;;;;;;8.40;3.33;;;11.10;99.90;;;;;;5065762;28;20777;-60
2022/06/10 01:47:42;;;;;;;11.02;3.10;;;11.00;99.90;;;;;;5065506;28;20028;-60
2022/06/10 01:50:22;;;;;;;4.45;2.60;;;11.00;99.90;;;;;;5063159;28;20029;-59
2022/06/10 01:53:16;;;;;;;6.63;3.10;;;10.90;99.90;;;;;;5060948;28;20363;-60
2022/06/10 01:56:00;;;;;;;13.20;3.30;;;10.80;99.90;;;;;;5059911;28;20229;-60
2022/06/10 01:58:44;;;;;;;6.85;2.80;;;10.70;99.90;;;;;;5062233;28;20051;-59
2022/06/10 02:01:15;;;;;;;6.07;2.95;;;10.80;99.90;;;;;;5065523;28;20487;-60
2022/06/10 02:03:53;;;;;;;5.88;2.88;;;10.80;99.90;;;;;;5057060;28;20053;-59
2022/06/10 02:06:40;;;;;;;5.93;3.00;;;10.80;99.90;;;;;;5056033;28;20033;-60
2022/06/10 02:09:14;;;;;;;5.82;3.00;;;10.80;99.90;;;;;;5066483;28;20029;-60
2022/06/10 02:11:45;;;;;;;6.07;3.30;;;10.80;99.90;;;;;;5066357;28;20082;-60
2022/06/10 02:14:26;;;;;;;7.05;3.17;;;10.70;99.90;;;;;;5068019;28;20048;-59
2022/06/10 02:16:55;;;;;;;4.63;3.05;;;10.70;99.90;;;;;;5062398;28;20039;-60
2022/06/10 02:19:35;;;;;;;7.10;3.45;;;10.60;99.90;;;;;;5066983;28;20032;-59
2022/06/10 02:22:20;;;;;;;7.07;3.03;;;10.60;99.90;;;;;;5064303;28;20032;-60
2022/06/10 02:24:58;;;;;;;8.02;3.53;;;10.60;99.90;;;;;;5065954;28;20040;-60
2022/06/10 02:27:28;;;;;;;9.20;3.78;;;10.50;99.90;;;;;;5065868;28;20060;-60
2022/06/10 02:30:02;;;;;;;8.63;3.30;;;10.50;99.90;;;;;;5066816;28;20028;-59
2022/06/10 02:32:29;;;;;;;8.82;3.10;;;10.40;99.90;;;;;;5063658;28;20074;-60
2022/06/10 02:34:57;;;;;;;6.97;3.22;;;10.50;99.90;;;;;;5064290;28;20036;-59
2022/06/10 02:37:49;;;;;;;6.82;3.28;;;10.50;99.90;;;;;;5066130;28;20101;-60
2022/06/10 02:40:29;;;;;;;7.97;3.10;;;10.50;99.90;;;;;;5062112;28;20036;-60
2022/06/10 02:43:13;;;;;;;6.60;3.50;;;10.60;99.90;;;;;;5063794;28;20482;-59
2022/06/10 02:45:49;;;;;;;7.57;3.50;;;10.60;99.90;;;;;;5064640;28;20497;-60
2022/06/10 02:48:26;;;;;;;9.73;4.20;;;10.70;99.90;;;;;;5065141;28;20029;-60
2022/06/10 02:50:52;;;;;;;5.97;3.28;;;10.80;99.90;;;;;;5064526;28;20036;-60
2022/06/10 02:53:18;;;;;;;9.75;4.00;;;10.80;99.90;;;;;;5066948;28;20386;-60
2022/06/10 02:55:45;;;;;;;7.72;3.55;;;10.80;99.90;;;;;;5063221;28;20044;-60
2022/06/10 03:01:13;;;;;;;10.07;3.83;;;10.60;99.90;;;;;;5064824;28;20051;-59
2022/06/10 03:04:06;;;;;;;7.07;3.58;;;10.50;99.90;;;;;;5052285;28;20083;-59
2022/06/10 03:07:02;;;;;;;6.28;2.97;;;10.50;99.90;;;;;;5066861;28;20020;-59
2022/06/10 03:09:39;;;;;;;6.40;3.38;;;10.30;99.90;;;;;;5054431;28;20059;-60
2022/06/10 03:12:14;;;;;;;7.55;3.35;;;10.30;99.90;;;;;;5053691;28;20033;-59
2022/06/10 03:15:18;;;;;;;8.88;3.70;;;10.20;99.90;;;;;;5060514;28;20158;-59
2022/06/10 03:18:19;;;;;;;8.90;3.30;;;10.20;99.90;;;;;;5055141;28;20040;-59
2022/06/10 03:21:04;;;;;;;8.25;3.35;;;10.10;99.90;;;;;;5062437;28;20048;-60
2022/06/10 03:23:39;;;;;;;8.63;3.25;;;10.10;99.90;;;;;;5066781;28;20037;-59
2022/06/10 03:26:13;;;;;;;6.30;3.15;;;10.20;99.90;;;;;;5062724;28;20039;-60
2022/06/10 03:29:09;;;;;;;5.95;3.35;;;10.20;99.90;;;;;;5065209;28;20108;-59
2022/06/10 03:32:00;;;;;;;7.63;3.50;;;10.20;99.90;;;;;;5055398;28;20048;-59
2022/06/10 03:34:35;;;;;;;7.20;3.65;;;10.20;99.90;;;;;;5045832;28;20040;-60
2022/06/10 03:37:03;;;;;;;9.05;3.58;;;10.20;99.90;;;;;;5066678;28;20028;-60
2022/06/10 03:39:29;;;;;;;4.68;3.05;;;10.20;99.90;;;;;;5066197;28;20025;-59
2022/06/10 03:42:12;;;;;;;6.28;3.10;;;10.10;99.90;;;;;;5066859;28;20115;-59
2022/06/10 03:44:38;;;;;;;5.53;3.17;;;10.10;99.90;;;;;;5065586;28;20547;-59
2022/06/10 03:47:07;;;;;;;5.38;2.90;;;10.00;99.90;;;;;;5066277;28;20036;-59
2022/06/10 03:49:57;;;;;;;5.30;2.85;;;10.10;99.90;;;;;;5067689;28;20035;-59
2022/06/10 03:52:27;;;;;;;6.07;2.72;;;10.00;99.90;;;;;;5066392;28;20069;-59
2022/06/10 03:54:53;;;;;;;8.07;3.25;;;10.10;99.90;;;;;;5054787;28;20045;-60
2022/06/10 03:57:18;;;;;;;6.07;3.25;;;10.10;99.90;;;;;;5061044;28;20033;-60
2022/06/10 03:59:45;;;;;;;5.35;2.78;;;10.20;99.90;;;;;;5068843;28;20498;-59
2022/06/10 04:02:11;;;;;;;5.07;3.00;;;10.30;99.90;;;;;;5053416;28;20079;-60
2022/06/10 04:04:38;;;;;;;7.60;2.88;;;10.40;99.90;;;;;;5066285;28;20233;-58
2022/06/10 04:07:05;;;;;;;9.50;3.08;;;10.50;99.90;;;;;;5066558;28;20024;-60
2022/06/10 04:09:31;;;;;;;8.15;2.85;;;10.60;99.90;;;;;;5065642;28;20616;-58
2022/06/10 04:11:56;;;;;;;5.25;3.25;;;10.60;99.90;;;;;;5068405;28;20086;-59
2022/06/10 04:14:22;;;;;;;7.60;3.38;;;10.60;99.90;;;;;;5067909;28;20081;-59
2022/06/10 04:16:48;;;;;;;10.55;3.22;;;10.70;99.90;;;;;;5066735;28;20054;-59
2022/06/10 04:19:14;;;;;;;5.00;3.13;;;10.70;99.90;;;;;;5065422;28;20044;-59
2022/06/10 04:21:40;;;;;;;6.43;3.38;;;10.80;99.90;;;;;;5061493;28;20059;-58
2022/06/10 04:24:06;;;;;;;6.47;2.53;;;10.70;99.90;;;;;;5062781;28;20021;-59
2022/06/10 04:26:32;;;;;;;4.68;2.60;;;10.70;99.90;;;;;;5067324;28;20215;-59
2022/06/10 04:28:58;;;;;;;4.03;2.55;;;10.70;99.90;;;;;;5068970;28;20063;-59
2022/06/10 04:31:24;;;;;;;5.00;3.03;;;10.80;99.90;;;;;;5061620;28;20073;-59
2022/06/10 04:33:49;;;;;;;4.07;2.55;;;11.00;99.90;;;;;;5069758;28;20037;-58
2022/06/10 04:36:18;;;;;;;7.40;3.00;;;11.20;99.90;;;;;;5068333;28;20024;-59
2022/06/10 04:38:44;;;;;;;5.20;2.78;;;11.20;99.90;;;;;;5069639;28;20478;-59
2022/06/10 04:41:11;;;;;;;6.75;2.78;;;11.40;99.90;;;;;;5064451;28;20033;-59
2022/06/10 04:43:37;;;;;;;5.72;2.90;;;11.60;99.90;;;;;;5065469;28;20047;-60
2022/06/10 04:46:06;;;;;;;9.80;2.97;;;11.90;99.90;;;;;;5063724;28;20029;-60
2022/06/10 04:48:33;;;;;;;4.18;2.80;;;12.10;99.90;;;;;;5060625;28;20036;-60
2022/06/10 04:50:59;;;;;;;5.57;3.13;;;12.20;99.90;;;;;;5060055;28;20116;-59
2022/06/10 04:53:25;;;;;;;8.27;3.10;;;12.40;99.90;;;;;;5069275;28;20159;-59
2022/06/10 04:55:51;;;;;;;5.88;2.80;;;12.50;99.90;;;;;;5071261;28;20111;-59
2022/06/10 04:58:17;;;;;;;7.35;2.92;;;12.70;99.90;;;;;;5069750;28;20037;-60
2022/06/10 05:00:48;;;;;;;5.53;2.95;;;12.80;99.90;;;;;;5069190;28;20040;-59
2022/06/10 05:03:15;;;;;;;7.82;2.97;;;12.90;99.90;;;;;;5065665;28;20093;-59
2022/06/10 05:05:42;;;;;;;4.25;2.78;;;13.10;99.90;;;;;;5063532;28;20807;-58
2022/06/10 05:08:10;;;;;;;8.13;3.05;;;13.30;99.90;;;;;;5060387;28;20398;-59
2022/06/10 05:10:36;;;;;;;6.97;3.00;;;13.30;99.90;;;;;;5068420;28;20805;-59
2022/06/10 05:13:02;;;;;;;4.70;3.13;;;13.40;99.90;;;;;;5068571;28;20036;-59
2022/06/10 05:15:28;;;;;;;5.60;3.15;;;13.50;99.90;;;;;;5068364;28;20071;-59
2022/06/10 05:17:56;;;;;;;6.68;3.08;;;13.60;99.90;;;;;;5058397;28;20024;-58
2022/06/10 05:20:28;;;;;;;5.05;2.58;;;13.70;99.90;;;;;;5068025;28;20040;-58
2022/06/10 05:22:53;;;;;;;5.13;3.03;;;13.70;99.90;;;;;;5050422;28;20403;-59
2022/06/10 05:25:19;;;;;;;8.52;3.53;;;13.80;99.90;;;;;;5066198;28;20032;-60
2022/06/10 05:27:46;;;;;;;6.53;3.28;;;13.90;99.90;;;;;;5068548;28;20028;-60
2022/06/10 05:30:17;;;;;;;6.45;3.00;;;14.00;99.90;;;;;;5055774;28;20040;-59
2022/06/10 05:32:43;;;;;;;8.80;2.97;;;14.10;99.90;;;;;;5063740;28;20135;-59
2022/06/10 05:35:09;;;;;;;5.70;3.25;;;14.20;99.90;;;;;;5064505;28;20197;-60
2022/06/10 05:37:34;;;;;;;7.75;3.40;;;14.10;99.90;;;;;;5063576;28;20028;-59
2022/06/10 05:40:00;;;;;;;5.20;2.67;;;14.10;99.90;;;;;;5068012;28;20035;-59
2022/06/10 05:42:26;;;;;;;5.32;2.80;;;14.10;99.90;;;;;;5067867;28;20047;-59
2022/06/10 05:44:52;;;;;;;9.02;2.92;;;14.10;99.90;;;;;;5069365;28;20052;-59
2022/06/10 05:47:22;;;;;;;8.57;2.92;;;14.20;99.90;;;;;;5064524;28;20032;-60
2022/06/10 05:49:50;;;;;;;9.27;3.15;;;14.30;99.90;;;;;;5055115;28;20033;-60
2022/06/10 05:52:18;;;;;;;9.45;3.30;;;14.40;99.90;;;;;;5058855;28;20059;-60
2022/06/10 05:54:46;;;;;;;9.60;2.85;;;14.40;99.90;;;;;;5065586;28;20163;-60
2022/06/10 05:57:13;;;;;;;7.70;2.78;;;14.40;99.90;;;;;;5068883;28;20098;-60
2022/06/10 05:59:39;;;;;;;6.40;2.85;;;14.50;99.90;;;;;;5062136;28;20028;-60
2022/06/10 06:02:08;;;;;;;8.13;3.17;;;14.50;99.90;;;;;;5056945;28;20041;-60
2022/06/10 06:04:34;;;;;;;5.03;2.70;;;14.60;99.90;;;;;;5057664;28;20692;-61
2022/06/10 06:07:00;;;;;;;13.50;4.03;;;14.70;99.90;;;;;;5064533;28;20040;-60
2022/06/10 06:09:29;;;;;;;7.43;2.92;;;14.80;99.90;;;;;;5057414;28;20035;-60
2022/06/10 06:11:56;;;;;;;5.40;3.03;;;14.90;99.90;;;;;;5069706;28;20466;-59
2022/06/10 06:14:25;;;;;;;8.88;3.13;;;15.00;99.90;;;;;;5055366;28;20099;-60
2022/06/10 06:16:59;;;;;;;11.18;3.15;;;15.00;99.90;;;;;;5065097;28;20422;-60
2022/06/10 06:19:27;;;;;;;9.68;3.00;;;15.20;99.90;;;;;;5052123;28;20086;-60
2022/06/10 06:21:53;;;;;;;7.80;2.78;;;15.20;99.90;;;;;;5068358;28;20036;-60
2022/06/10 06:24:19;;;;;;;12.20;2.90;;;15.20;99.90;;;;;;5067981;28;20117;-60
2022/06/10 06:26:45;;;;;;;11.70;2.63;;;15.30;99.90;;;;;;5067081;28;20052;-60
2022/06/10 06:29:11;;;;;;;7.20;2.53;;;15.40;99.90;;;;;;5069362;28;20104;-60
2022/06/10 06:31:37;;;;;;;9.50;3.55;;;15.60;99.90;;;;;;5064269;28;20780;-60
2022/06/10 06:34:04;;;;;;;14.80;3.45;;;15.60;99.90;;;;;;5068850;28;20505;-59
2022/06/10 06:36:37;;;;;;;7.10;2.67;;;15.60;99.90;;;;;;5067338;28;20110;-60
2022/06/10 06:39:02;;;;;;;8.38;3.33;;;15.70;99.90;;;;;;5053281;28;20040;-61
2022/06/10 06:41:28;;;;;;;6.22;2.72;;;15.80;99.90;;;;;;5048016;28;20044;-61
2022/06/10 06:43:54;;;;;;;8.82;3.40;;;15.70;99.90;;;;;;5065036;28;20028;-60
2022/06/10 06:46:19;;;;;;;6.68;3.20;;;15.80;99.90;;;;;;5065990;28;20409;-60
2022/06/10 06:48:45;;;;;;;8.15;3.42;;;16.00;99.90;;;;;;5060681;28;20092;-60
2022/06/10 06:51:12;;;;;;;13.05;3.22;;;16.10;99.90;;;;;;5056457;28;20527;-59
2022/06/10 06:53:37;;;;;;;9.25;3.17;;;16.20;99.90;;;;;;5066197;28;20060;-60
2022/06/10 06:56:06;;;;;;;10.48;3.75;;;16.40;99.90;;;;;;5064427;28;20058;-60
2022/06/10 06:58:32;;;;;;;8.32;3.00;;;16.50;99.90;;;;;;5066897;28;20591;-60
2022/06/10 07:00:58;;;;;;;11.48;2.83;;;16.50;99.90;;;;;;5057942;28;20028;-60
2022/06/10 07:03:25;;;;;;;7.70;3.20;;;16.40;99.90;;;;;;5057057;28;20035;-60
2022/06/10 07:05:52;;;;;;;8.23;3.10;;;16.30;99.90;;;;;;5059152;28;20029;-60
2022/06/10 07:08:18;;;;;;;10.05;3.65;;;16.30;99.90;;;;;;5062056;28;20032;-61
2022/06/10 07:10:44;;;;;;;7.07;3.13;;;16.40;99.90;;;;;;5067190;28;20056;-61
2022/06/10 07:13:11;;;;;;;9.57;3.20;;;16.60;99.90;;;;;;5067891;28;20482;-61
2022/06/10 07:15:39;;;;;;;11.10;3.72;;;16.90;99.90;;;;;;5063392;28;20042;-62
2022/06/10 07:18:06;;;;;;;10.88;3.75;;;17.10;99.90;;;;;;5056505;28;20028;-59
2022/06/10 07:20:34;;;;;;;9.85;3.50;;;17.10;99.90;;;;;;5061267;28;20043;-61
2022/06/10 07:23:00;;;;;;;6.55;2.97;;;17.10;99.90;;;;;;5067500;28;20485;-61
2022/06/10 07:25:28;;;;;;;8.88;4.00;;;17.30;99.90;;;;;;5067629;28;20032;-61
2022/06/10 07:27:55;;;;;;;9.85;3.40;;;17.40;99.90;;;;;;5060491;28;20462;-61
2022/06/10 07:30:24;;;;;;;8.10;3.25;;;17.50;99.90;;;;;;5067992;28;20512;-61
2022/06/10 07:32:49;;;;;;;13.32;3.55;;;17.60;99.90;;;;;;5062076;28;20095;-61
2022/06/10 07:35:17;;;;;;;5.72;3.42;;;17.60;99.90;;;;;;5066612;28;20482;-61
2022/06/10 07:37:42;;;;;;;6.35;3.10;;;17.60;99.90;;;;;;5066057;28;20073;-61
2022/06/10 07:41:56;;;;;;;10.30;3.17;;;17.70;99.90;;;;;;5061088;28;20032;-61
2022/06/10 07:42:54;;;;;;;7.85;3.60;;;17.80;99.90;;;;;;5065050;28;20040;-61
2022/06/10 07:45:20;;;;;;;7.75;3.20;;;17.70;99.90;;;;;;5067514;28;20069;-61
2022/06/10 07:47:45;;;;;;;11.98;3.08;;;17.70;99.90;;;;;;5061213;28;20028;-60
2022/06/10 07:50:11;;;;;;;7.07;2.75;;;17.90;99.90;;;;;;5067223;28;20506;-61
2022/06/10 07:52:37;;;;;;;12.00;3.40;;;18.10;99.90;;;;;;5066671;28;20575;-61
2022/06/10 07:55:04;;;;;;;6.20;2.97;;;18.30;99.90;;;;;;5064107;28;20052;-59
2022/06/10 07:57:29;;;;;;;7.18;2.95;;;18.50;99.90;;;;;;5064304;28;20044;-60
2022/06/10 07:59:55;;;;;;;7.13;3.20;;;18.70;99.90;;;;;;5063998;28;20021;-60
2022/06/10 08:02:20;;;;;;;9.23;3.03;;;18.70;99.90;;;;;;5060005;28;20406;-59
2022/06/10 08:04:46;;;;;;;10.40;3.53;;;18.80;99.90;;;;;;5062443;28;20470;-59
2022/06/10 08:07:12;;;;;;;7.20;3.22;;;18.50;99.90;;;;;;5064002;28;20105;-60
2022/06/10 08:09:38;;;;;;;12.70;3.17;;;18.60;99.90;;;;;;5047427;28;20738;-60
2022/06/10 08:12:04;;;;;;;7.70;3.22;;;18.90;99.90;;;;;;5065322;28;20164;-60
2022/06/10 08:14:30;;;;;;;9.80;2.60;;;19.10;99.90;;;;;;5066363;28;20089;-60
2022/06/10 08:16:56;;;;;;;5.15;2.58;;;19.20;99.90;;;;;;5065191;28;20020;-60
2022/06/10 08:19:22;;;;;;;7.18;2.88;;;19.20;99.90;;;;;;5062058;28;20053;-60
2022/06/10 08:24:32;;;;;;;9.73;3.17;;;19.50;99.90;;;;;;5065255;28;20143;-60
2022/06/10 08:26:58;;;;;;;7.45;2.95;;;19.60;99.90;;;;;;5067890;28;20119;-60
2022/06/10 08:29:24;;;;;;;5.15;3.17;;;19.60;99.90;;;;;;5065666;28;20036;-60
2022/06/10 08:31:50;;;;;;;7.97;3.05;;;19.20;99.90;;;;;;5064958;28;20044;-60
2022/06/10 08:34:15;;;;;;;14.68;3.22;;;19.30;99.90;;;;;;5055683;28;20043;-60
2022/06/10 08:36:42;;;;;;;7.70;3.08;;;19.60;99.90;;;;;;5066962;28;20029;-61
2022/06/10 08:39:07;;;;;;;8.05;3.30;;;19.90;99.90;;;;;;5050043;28;20037;-59
2022/06/10 08:41:50;;;;;;;10.25;3.40;;;20.00;99.90;;;;;;5052710;28;20528;-60
2022/06/10 08:44:45;;;;;;;9.60;3.20;;;19.80;99.90;;;;;;5060987;28;20029;-60
2022/06/10 08:47:48;;;;;;;11.05;3.70;;;19.20;99.90;;;;;;5067383;28;20067;-61
2022/06/10 08:50:43;;;;;;;6.85;3.28;;;18.70;99.90;;;;;;5062901;28;20044;-60
2022/06/10 08:53:37;;;;;;;7.05;2.78;;;18.60;99.90;;;;;;5070201;28;20426;-61
2022/06/10 08:56:17;;;;;;;7.18;3.13;;;19.10;99.90;;;;;;5068583;28;20032;-60
2022/06/10 08:59:26;;;;;;;6.10;2.53;;;19.50;99.90;;;;;;5067979;28;20032;-60
2022/06/10 09:02:02;;;;;;;8.02;3.22;;;19.90;99.90;;;;;;5032674;28;20135;-60
2022/06/10 09:04:38;;;;;;;7.63;3.05;;;20.40;99.90;;;;;;5059986;28;20040;-61
2022/06/10 09:07:11;;;;;;;7.78;3.00;;;20.60;99.90;;;;;;5069651;28;20040;-61
2022/06/10 09:09:40;;;;;;;4.57;2.65;;;20.80;99.90;;;;;;5069455;28;20499;-60
2022/06/10 09:12:18;;;;;;;9.35;2.75;;;21.30;99.90;;;;;;5069837;28;20032;-60
2022/06/10 09:14:44;;;;;;;9.75;3.15;;;21.40;99.90;;;;;;5069982;28;20691;-60
2022/06/10 09:17:20;;;;;;;11.07;2.90;;;21.60;99.90;;;;;;5062396;28;20021;-60
2022/06/10 09:20:03;;;;;;;7.10;2.90;;;21.60;99.90;;;;;;5066909;28;20784;-60
2022/06/10 09:23:02;;;;;;;8.02;2.80;;;21.40;99.90;;;;;;5069665;28;20086;-61
2022/06/10 09:25:33;;;;;;;13.45;3.13;;;21.60;99.90;;;;;;5068353;28;20041;-61
2022/06/10 09:28:00;;;;;;;7.95;2.97;;;21.20;99.90;;;;;;5069102;28;20035;-61
2022/06/10 09:30:39;;;;;;;8.93;3.15;;;20.70;99.90;;;;;;5061195;28;20032;-60
2022/06/10 09:33:28;;;;;;;8.90;2.70;;;20.50;99.90;;;;;;5047406;28;20090;-62
2022/06/10 09:36:06;;;;;;;6.75;2.58;;;20.80;99.90;;;;;;5035617;28;20033;-60
2022/06/10 09:38:40;;;;;;;10.85;2.90;;;21.00;99.90;;;;;;5039465;28;20029;-61
2022/06/10 09:41:30;;;;;;;7.03;2.42;;;21.40;99.90;;;;;;5045613;28;20033;-60
2022/06/10 09:44:05;;;;;;;9.38;3.03;;;21.80;99.90;;;;;;5047866;28;20021;-60
2022/06/10 09:46:34;;;;;;;6.47;2.60;;;22.10;99.90;;;;;;5046066;28;20024;-61
2022/06/10 09:49:29;;;;;;;5.10;2.35;;;22.50;99.90;;;;;;5038850;28;20033;-60
2022/06/10 09:52:00;;;;;;;6.43;2.42;;;22.40;99.90;;;;;;5039412;28;20167;-60
2022/06/10 09:55:00;;;;;;;3.70;2.15;;;22.90;99.90;;;;;;5049865;28;20025;-60
2022/06/10 09:57:37;;;;;;;8.17;2.70;;;23.10;99.90;;;;;;5038486;28;20049;-60
2022/06/10 10:00:38;;;;;;;7.60;2.28;;;22.90;99.90;;;;;;5048968;28;20521;-61
2022/06/10 10:03:25;;;;;;;7.22;2.53;;;23.20;99.90;;;;;;5048234;28;20041;-61
2022/06/10 10:05:57;;;;;;;6.53;2.70;;;23.10;99.90;;;;;;5047866;28;20021;-60
2022/06/10 10:08:36;;;;;;;5.07;2.75;;;23.10;99.90;;;;;;5042928;28;20029;-60
2022/06/10 10:11:27;;;;;;;5.97;2.10;;;22.60;99.40;;;;;;5032043;28;20041;-60
2022/06/10 10:14:20;;;;;;;5.35;2.03;;;22.50;98.70;;;;;;5040269;28;20021;-60
2022/06/10 10:17:20;;;;;;;7.13;2.40;;;23.00;96.40;;;;;;5030892;28;20025;-60
2022/06/10 10:20:06;;;;;;;7.50;2.17;;;23.40;98.50;;;;;;5038600;28;20125;-61
2022/06/10 10:22:44;;;;;;;5.10;1.80;;;23.90;99.00;;;;;;5039724;28;20047;-60
2022/06/10 10:25:20;;;;;;;7.40;2.40;;;23.90;99.90;;;;;;5046105;28;20033;-60
2022/06/10 10:27:47;;;;;;;10.00;2.35;;;24.10;99.70;;;;;;5047587;28;20036;-60
2022/06/10 10:30:18;;;;;;;8.95;2.90;;;23.70;98.40;;;;;;5048213;28;20040;-60
2022/06/10 10:32:52;;;;;;;9.23;2.70;;;22.80;98.40;;;;;;5065202;28;20502;-61
2022/06/10 10:35:24;;;;;;;4.80;2.40;;;22.10;99.40;;;;;;5067339;28;20040;-60
2022/06/10 10:37:58;;;;;;;6.75;2.40;;;21.70;99.90;;;;;;5067266;28;20878;-60
2022/06/10 10:40:34;;;;;;;6.80;2.40;;;21.50;99.90;;;;;;5069006;28;20032;-61
2022/06/10 10:43:05;;;;;;;5.75;2.45;;;21.80;99.90;;;;;;5067860;28;20032;-60
2022/06/10 10:45:36;;;;;;;8.48;2.33;;;22.50;99.90;;;;;;5067807;28;20438;-60
2022/06/10 10:48:15;;;;;;;4.72;2.30;;;23.20;99.90;;;;;;5067613;28;20111;-60
2022/06/10 10:50:53;;;;;;;3.70;2.28;;;23.60;96.50;;;;;;5061201;28;20024;-61
2022/06/10 10:53:33;;;;;;;5.88;2.40;;;23.40;98.70;;;;;;5065798;28;20035;-60
2022/06/10 10:56:01;;;;;;;6.60;2.40;;;23.30;96.80;;;;;;5066164;28;20028;-60
2022/06/10 10:58:37;;;;;;;11.27;2.50;;;23.60;97.90;;;;;;5068134;28;20031;-60
2022/06/10 11:01:09;;;;;;;6.53;1.90;;;23.60;96.50;;;;;;5049043;28;20541;-61
2022/06/10 11:03:45;;;;;;;7.28;2.88;;;23.20;96.40;;;;;;5052505;28;20115;-60
2022/06/10 11:06:32;;;;;;;5.60;2.10;;;23.10;97.60;;;;;;5059191;28;20032;-60
2022/06/10 11:09:02;;;;;;;6.55;2.20;;;23.00;95.60;;;;;;5065554;28;20749;-59
2022/06/10 11:11:34;;;;;;;3.93;2.00;;;23.50;95.10;;;;;;5049256;28;20123;-59
2022/06/10 11:14:04;;;;;;;5.95;2.88;;;24.00;97.80;;;;;;5066180;28;20371;-60
2022/06/10 11:16:36;;;;;;;6.50;2.42;;;24.00;95.10;;;;;;5067307;28;20166;-59
2022/06/10 11:19:11;;;;;;;4.50;2.00;;;23.50;94.10;;;;;;5064419;28;20036;-59
2022/06/10 11:21:54;;;;;;;3.58;1.98;;;22.90;93.80;;;;;;5048015;28;20062;-60
2022/06/10 11:24:26;;;;;;;6.55;2.20;;;22.50;95.70;;;;;;5064461;28;20082;-59
2022/06/10 11:26:58;;;;;;;6.53;2.40;;;22.30;95.70;;;;;;5066795;28;20024;-59
2022/06/10 11:29:25;;;;;;;8.23;2.35;;;22.10;94.80;;;;;;5066601;28;20047;-60
2022/06/10 11:31:56;;;;;;;4.25;1.95;;;21.80;94.50;;;;;;5066433;28;20045;-60
2022/06/10 11:34:53;;;;;;;7.25;2.13;;;21.80;96.70;;;;;;5066488;28;20033;-60
2022/06/10 11:37:37;;;;;;;4.70;2.05;;;22.40;93.90;;;;;;5047542;28;20043;-60
2022/06/10 11:40:17;;;;;;;8.20;2.20;;;22.70;94.40;;;;;;5062251;28;20034;-60
2022/06/10 11:43:15;;;;;;;5.65;2.22;;;23.00;93.00;;;;;;5059019;28;20036;-60
2022/06/10 11:45:59;;;;;;;3.30;1.98;;;23.20;92.10;;;;;;5031588;28;20462;-60
2022/06/10 11:48:50;;;;;;;4.65;2.10;;;23.90;90.70;;;;;;5060942;28;20032;-60
2022/06/10 11:51:28;;;;;;;5.05;2.00;;;24.00;90.10;;;;;;5063524;28;20037;-60
2022/06/10 11:54:05;;;;;;;3.85;1.92;;;24.30;89.60;;;;;;5060317;28;20887;-60
2022/06/10 12:00:16;;;;;;;5.47;2.05;;;25.00;91.80;;;;;;5066021;28;20116;-61
2022/06/10 12:02:42;;;;;;;7.15;2.30;;;25.00;91.70;;;;;;5031034;28;20053;-60
2022/06/10 12:05:17;;;;;;;5.53;2.10;;;24.60;87.40;;;;;;5065437;28;20028;-60
2022/06/10 12:08:00;;;;;;;5.97;2.20;;;24.10;86.60;;;;;;5067474;28;20032;-60
2022/06/10 12:10:27;;;;;;;7.57;2.47;;;24.20;87.50;;;;;;5066632;28;20025;-60
2022/06/10 12:12:55;;;;;;;4.05;1.95;;;24.20;93.90;;;;;;5067232;28;20118;-59
2022/06/10 12:15:25;;;;;;;4.90;2.28;;;24.70;89.50;;;;;;5066417;28;20036;-59
2022/06/10 12:17:56;;;;;;;4.90;1.85;;;25.10;91.20;;;;;;5064850;28;20638;-60
2022/06/10 12:20:33;;;;;;;;;;;24.80;90.20;;;;;;5064103;28;20036;-60
2022/06/10 12:23:12;;;;;;;7.22;2.38;;;25.00;88.60;;;;;;5068129;28;19998;-59
2022/06/10 12:25:47;;;;;;;6.25;1.90;;;24.70;88.80;;;;;;5069803;28;20483;-60
2022/06/10 12:28:37;;;;;;;5.15;2.10;;;24.40;90.60;;;;;;5057388;28;20033;-61
2022/06/10 12:31:32;;;;;;;9.65;2.30;;;24.30;83.30;;;;;;5055090;28;20048;-60
2022/06/10 12:34:09;;;;;;;8.93;1.48;;;24.50;83.60;;;;;;5063460;28;20037;-60
2022/06/10 12:36:49;;;;;;;4.60;1.52;;;24.70;87.20;;;;;;5069409;28;20103;-60
2022/06/10 12:39:52;;;;;;;3.10;1.88;;;24.90;77.50;;;;;;5069273;28;20060;-60
2022/06/10 12:42:36;;;;;;;4.32;1.70;;;24.90;78.70;;;;;;5043552;28;20494;-60
2022/06/10 12:45:05;;;;;;;7.10;2.00;;;25.20;79.60;;;;;;5070860;28;20134;-60
2022/06/10 12:47:36;;;;;;;3.13;1.80;;;25.60;83.40;;;;;;5069248;28;20067;-60
2022/06/10 12:50:16;;;;;;;3.22;2.00;;;25.70;83.00;;;;;;5064556;28;20267;-69
2022/06/10 12:53:00;;;;;;;;;;;25.60;84.90;;;;;;5060001;28;20041;-70
2022/06/10 12:55:48;;;;;;;3.97;1.88;;;25.30;83.40;;;;;;5068819;28;20324;-67
2022/06/10 12:58:36;;;;;;;4.13;1.88;;;25.20;77.60;;;;;;5067895;28;20082;-67
2022/06/10 13:01:27;;;;;;;6.20;2.00;;;25.20;75.20;;;;;;5069320;28;20733;-67
2022/06/10 13:03:53;;;;;;;;;;;24.80;77.50;;;;;;5071060;28;20037;-68
2022/06/10 13:06:27;;;;;;;4.22;1.92;;;24.70;75.40;;;;;;5070187;28;20020;-67
2022/06/10 13:08:57;;;;;;;5.57;1.80;;;24.80;83.20;;;;;;5069255;28;20708;-68
2022/06/10 13:11:34;;;;;;;4.72;1.98;;;25.00;77.50;;;;;;5067954;28;20094;-67
2022/06/10 13:14:29;;;;;;;3.65;1.75;;;25.10;80.90;;;;;;5069342;28;20020;-67
2022/06/10 13:16:58;;;;;;;5.53;2.08;;;24.60;82.30;;;;;;5063633;28;20107;-67
2022/06/10 13:19:36;;;;;;;4.47;1.85;;;24.60;75.50;;;;;;5071046;28;20035;-67
2022/06/10 13:22:20;;;;;;;5.10;1.98;;;24.90;79.30;;;;;;5067678;28;20494;-67
2022/06/10 13:24:52;;;;;;;4.95;1.70;;;25.20;72.80;;;;;;5069522;28;20095;-67
2022/06/10 13:27:27;;;;;;;6.90;1.88;;;25.70;77.50;;;;;;5068212;28;20058;-68
2022/06/10 13:29:58;;;;;;;2.58;1.40;;;26.00;78.80;;;;;;5067010;28;20435;-67
2022/06/10 13:32:25;;;;;;;4.68;1.80;;;26.20;69.00;;;;;;5061827;28;20151;-67